sensor_id;sensor_type;location;lat;lon;timestamp;P1;durP1;ratioP1;P2;durP2;ratioP2
39956;SDS011;48483;44.640;7.494;2023-07-29T00:01:02;6.13;;;3.40;;
39956;SDS011;48483;44.640;7.494;2023-07-29T00:03:31;10.35;;;3.28;;
39956;SDS011;48483;44.640;7.494;2023-07-29T00:05:59;6.32;;;3.17;;
39956;SDS011;48483;44.640;7.494;2023-07-29T00:08:26;5.30;;;2.90;;
39956;SDS011;48483;44.640;7.494;2023-07-29T00:10:53;4.88;;;2.85;;
39956;SDS011;48483;44.640;7.494;2023-07-29T00:13:20;6.93;;;2.95;;
39956;SDS011;48483;44.640;7.494;2023-07-29T00:15:47;8.73;;;3.08;;
39956;SDS011;48483;44.640;7.494;2023-07-29T00:18:14;5.28;;;2.63;;
39956;SDS011;48483;44.640;7.494;2023-07-29T00:20:40;5.15;;;3.08;;
39956;SDS011;48483;44.640;7.494;2023-07-29T00:23:10;5.18;;;3.25;;
39956;SDS011;48483;44.640;7.494;2023-07-29T00:25:36;6.47;;;3.10;;
39956;SDS011;48483;44.640;7.494;2023-07-29T00:28:03;8.05;;;2.67;;
39956;SDS011;48483;44.640;7.494;2023-07-29T00:30:30;8.68;;;2.92;;
39956;SDS011;48483;44.640;7.494;2023-07-29T00:32:58;5.30;;;3.15;;
39956;SDS011;48483;44.640;7.494;2023-07-29T00:35:25;5.80;;;3.10;;
39956;SDS011;48483;44.640;7.494;2023-07-29T00:37:52;5.75;;;3.45;;
39956;SDS011;48483;44.640;7.494;2023-07-29T00:40:21;4.85;;;3.40;;
39956;SDS011;48483;44.640;7.494;2023-07-29T00:42:48;5.88;;;3.35;;
39956;SDS011;48483;44.640;7.494;2023-07-29T00:45:16;7.55;;;2.97;;
39956;SDS011;48483;44.640;7.494;2023-07-29T00:47:44;6.05;;;3.30;;
39956;SDS011;48483;44.640;7.494;2023-07-29T00:50:12;4.97;;;3.25;;
39956;SDS011;48483;44.640;7.494;2023-07-29T00:52:39;5.07;;;2.80;;
39956;SDS011;48483;44.640;7.494;2023-07-29T00:55:07;5.70;;;3.03;;
39956;SDS011;48483;44.640;7.494;2023-07-29T00:57:36;5.40;;;3.35;;
39956;SDS011;48483;44.640;7.494;2023-07-29T01:00:04;5.53;;;4.27;;
39956;SDS011;48483;44.640;7.494;2023-07-29T01:02:32;3.80;;;2.53;;
39956;SDS011;48483;44.640;7.494;2023-07-29T01:04:59;8.15;;;3.28;;
39956;SDS011;48483;44.640;7.494;2023-07-29T01:07:28;6.88;;;3.00;;
39956;SDS011;48483;44.640;7.494;2023-07-29T01:10:00;4.82;;;3.33;;
39956;SDS011;48483;44.640;7.494;2023-07-29T01:12:33;6.13;;;2.92;;
39956;SDS011;48483;44.640;7.494;2023-07-29T01:15:10;5.90;;;2.97;;
39956;SDS011;48483;44.640;7.494;2023-07-29T01:17:43;5.25;;;3.00;;
39956;SDS011;48483;44.640;7.494;2023-07-29T01:20:14;6.80;;;2.80;;
39956;SDS011;48483;44.640;7.494;2023-07-29T01:22:42;7.18;;;2.90;;
39956;SDS011;48483;44.640;7.494;2023-07-29T01:25:10;5.20;;;3.65;;
39956;SDS011;48483;44.640;7.494;2023-07-29T01:27:37;5.30;;;3.03;;
39956;SDS011;48483;44.640;7.494;2023-07-29T01:30:04;18.58;;;4.25;;
39956;SDS011;48483;44.640;7.494;2023-07-29T01:32:34;5.53;;;3.30;;
39956;SDS011;48483;44.640;7.494;2023-07-29T01:35:08;7.70;;;3.30;;
39956;SDS011;48483;44.640;7.494;2023-07-29T01:37:42;4.70;;;3.00;;
39956;SDS011;48483;44.640;7.494;2023-07-29T01:40:16;6.32;;;3.28;;
39956;SDS011;48483;44.640;7.494;2023-07-29T01:42:44;11.30;;;3.03;;
39956;SDS011;48483;44.640;7.494;2023-07-29T01:45:12;7.32;;;3.30;;
39956;SDS011;48483;44.640;7.494;2023-07-29T01:47:38;4.82;;;3.00;;
39956;SDS011;48483;44.640;7.494;2023-07-29T01:50:07;5.57;;;3.58;;
39956;SDS011;48483;44.640;7.494;2023-07-29T01:52:35;5.35;;;3.50;;
39956;SDS011;48483;44.640;7.494;2023-07-29T01:55:02;5.35;;;3.72;;
39956;SDS011;48483;44.640;7.494;2023-07-29T01:57:31;11.43;;;3.53;;
39956;SDS011;48483;44.640;7.494;2023-07-29T01:59:58;7.15;;;3.90;;
39956;SDS011;48483;44.640;7.494;2023-07-29T02:02:25;7.68;;;3.78;;
39956;SDS011;48483;44.640;7.494;2023-07-29T02:04:52;5.20;;;3.38;;
39956;SDS011;48483;44.640;7.494;2023-07-29T02:07:19;6.65;;;3.92;;
39956;SDS011;48483;44.640;7.494;2023-07-29T02:09:45;6.47;;;4.00;;
39956;SDS011;48483;44.640;7.494;2023-07-29T02:12:12;7.10;;;3.08;;
39956;SDS011;48483;44.640;7.494;2023-07-29T02:14:40;7.78;;;4.03;;
39956;SDS011;48483;44.640;7.494;2023-07-29T02:17:07;6.55;;;3.55;;
39956;SDS011;48483;44.640;7.494;2023-07-29T02:19:34;5.97;;;4.00;;
39956;SDS011;48483;44.640;7.494;2023-07-29T02:22:01;5.50;;;3.38;;
39956;SDS011;48483;44.640;7.494;2023-07-29T02:24:28;5.63;;;3.88;;
39956;SDS011;48483;44.640;7.494;2023-07-29T02:26:55;6.30;;;3.70;;
39956;SDS011;48483;44.640;7.494;2023-07-29T02:29:22;6.22;;;3.20;;
39956;SDS011;48483;44.640;7.494;2023-07-29T02:31:50;5.57;;;3.08;;
39956;SDS011;48483;44.640;7.494;2023-07-29T02:34:17;6.15;;;4.30;;
39956;SDS011;48483;44.640;7.494;2023-07-29T02:36:44;5.55;;;3.53;;
39956;SDS011;48483;44.640;7.494;2023-07-29T02:39:11;5.90;;;3.60;;
39956;SDS011;48483;44.640;7.494;2023-07-29T02:41:38;4.57;;;3.38;;
39956;SDS011;48483;44.640;7.494;2023-07-29T02:44:05;4.75;;;3.15;;
39956;SDS011;48483;44.640;7.494;2023-07-29T02:46:32;7.57;;;3.63;;
39956;SDS011;48483;44.640;7.494;2023-07-29T02:49:01;6.72;;;3.15;;
39956;SDS011;48483;44.640;7.494;2023-07-29T02:51:28;5.15;;;3.70;;
39956;SDS011;48483;44.640;7.494;2023-07-29T02:53:55;5.25;;;3.10;;
39956;SDS011;48483;44.640;7.494;2023-07-29T02:56:22;6.38;;;2.90;;
39956;SDS011;48483;44.640;7.494;2023-07-29T02:58:49;7.63;;;3.28;;
39956;SDS011;48483;44.640;7.494;2023-07-29T03:01:17;7.30;;;3.17;;
39956;SDS011;48483;44.640;7.494;2023-07-29T03:03:44;6.38;;;3.83;;
39956;SDS011;48483;44.640;7.494;2023-07-29T03:06:13;5.88;;;3.30;;
39956;SDS011;48483;44.640;7.494;2023-07-29T03:08:40;6.00;;;3.30;;
39956;SDS011;48483;44.640;7.494;2023-07-29T03:11:09;6.95;;;3.33;;
39956;SDS011;48483;44.640;7.494;2023-07-29T03:13:37;4.60;;;3.22;;
39956;SDS011;48483;44.640;7.494;2023-07-29T03:16:04;6.30;;;3.63;;
39956;SDS011;48483;44.640;7.494;2023-07-29T03:18:32;5.70;;;4.07;;
39956;SDS011;48483;44.640;7.494;2023-07-29T03:20:59;8.38;;;3.83;;
39956;SDS011;48483;44.640;7.494;2023-07-29T03:23:28;8.85;;;4.38;;
39956;SDS011;48483;44.640;7.494;2023-07-29T03:25:55;9.02;;;4.57;;
39956;SDS011;48483;44.640;7.494;2023-07-29T03:28:24;6.65;;;4.05;;
39956;SDS011;48483;44.640;7.494;2023-07-29T03:30:53;6.07;;;4.00;;
39956;SDS011;48483;44.640;7.494;2023-07-29T03:33:20;12.38;;;4.63;;
39956;SDS011;48483;44.640;7.494;2023-07-29T03:35:47;6.35;;;4.03;;
39956;SDS011;48483;44.640;7.494;2023-07-29T03:38:14;5.55;;;3.83;;
39956;SDS011;48483;44.640;7.494;2023-07-29T03:40:43;5.75;;;3.78;;
39956;SDS011;48483;44.640;7.494;2023-07-29T03:43:10;6.72;;;3.90;;
39956;SDS011;48483;44.640;7.494;2023-07-29T03:45:37;6.75;;;3.97;;
39956;SDS011;48483;44.640;7.494;2023-07-29T03:48:05;9.98;;;3.70;;
39956;SDS011;48483;44.640;7.494;2023-07-29T03:50:33;5.68;;;4.15;;
39956;SDS011;48483;44.640;7.494;2023-07-29T03:55:30;4.63;;;3.13;;
39956;SDS011;48483;44.640;7.494;2023-07-29T03:57:58;6.57;;;3.35;;
39956;SDS011;48483;44.640;7.494;2023-07-29T04:00:26;11.23;;;3.90;;
39956;SDS011;48483;44.640;7.494;2023-07-29T04:02:53;10.70;;;4.43;;
39956;SDS011;48483;44.640;7.494;2023-07-29T04:05:20;6.28;;;3.42;;
39956;SDS011;48483;44.640;7.494;2023-07-29T04:07:47;7.78;;;4.25;;
39956;SDS011;48483;44.640;7.494;2023-07-29T04:10:14;6.70;;;3.85;;
39956;SDS011;48483;44.640;7.494;2023-07-29T04:12:41;5.45;;;3.47;;
39956;SDS011;48483;44.640;7.494;2023-07-29T04:15:10;7.25;;;4.35;;
39956;SDS011;48483;44.640;7.494;2023-07-29T04:17:37;5.60;;;3.83;;
39956;SDS011;48483;44.640;7.494;2023-07-29T04:20:04;6.03;;;3.75;;
39956;SDS011;48483;44.640;7.494;2023-07-29T04:22:34;8.63;;;4.03;;
39956;SDS011;48483;44.640;7.494;2023-07-29T04:25:01;7.85;;;4.20;;
39956;SDS011;48483;44.640;7.494;2023-07-29T04:27:27;5.82;;;3.78;;
39956;SDS011;48483;44.640;7.494;2023-07-29T04:29:54;5.50;;;3.50;;
39956;SDS011;48483;44.640;7.494;2023-07-29T04:32:22;6.07;;;3.67;;
39956;SDS011;48483;44.640;7.494;2023-07-29T04:34:49;5.53;;;3.30;;
39956;SDS011;48483;44.640;7.494;2023-07-29T04:37:16;8.73;;;4.10;;
39956;SDS011;48483;44.640;7.494;2023-07-29T04:39:43;8.55;;;3.53;;
39956;SDS011;48483;44.640;7.494;2023-07-29T04:42:09;5.25;;;3.70;;
39956;SDS011;48483;44.640;7.494;2023-07-29T04:44:36;5.25;;;3.67;;
39956;SDS011;48483;44.640;7.494;2023-07-29T04:47:03;5.63;;;4.03;;
39956;SDS011;48483;44.640;7.494;2023-07-29T04:49:31;7.47;;;3.50;;
39956;SDS011;48483;44.640;7.494;2023-07-29T04:51:58;7.10;;;4.13;;
39956;SDS011;48483;44.640;7.494;2023-07-29T04:54:25;6.57;;;3.83;;
39956;SDS011;48483;44.640;7.494;2023-07-29T04:56:52;6.22;;;3.72;;
39956;SDS011;48483;44.640;7.494;2023-07-29T04:59:18;6.25;;;3.97;;
39956;SDS011;48483;44.640;7.494;2023-07-29T05:01:45;6.22;;;3.97;;
39956;SDS011;48483;44.640;7.494;2023-07-29T05:04:13;6.78;;;3.72;;
39956;SDS011;48483;44.640;7.494;2023-07-29T05:06:41;6.50;;;4.10;;
39956;SDS011;48483;44.640;7.494;2023-07-29T05:09:14;6.53;;;3.78;;
39956;SDS011;48483;44.640;7.494;2023-07-29T05:11:42;8.10;;;3.92;;
39956;SDS011;48483;44.640;7.494;2023-07-29T05:14:12;6.57;;;3.20;;
39956;SDS011;48483;44.640;7.494;2023-07-29T05:16:39;5.25;;;3.65;;
39956;SDS011;48483;44.640;7.494;2023-07-29T05:19:06;5.80;;;3.70;;
39956;SDS011;48483;44.640;7.494;2023-07-29T05:21:32;8.27;;;3.92;;
39956;SDS011;48483;44.640;7.494;2023-07-29T05:24:01;4.75;;;3.47;;
39956;SDS011;48483;44.640;7.494;2023-07-29T05:26:28;5.72;;;3.42;;
39956;SDS011;48483;44.640;7.494;2023-07-29T05:28:54;7.05;;;4.65;;
39956;SDS011;48483;44.640;7.494;2023-07-29T05:31:21;5.43;;;3.25;;
39956;SDS011;48483;44.640;7.494;2023-07-29T05:33:48;8.30;;;3.85;;
39956;SDS011;48483;44.640;7.494;2023-07-29T05:36:15;6.38;;;3.38;;
39956;SDS011;48483;44.640;7.494;2023-07-29T05:38:42;6.40;;;3.70;;
39956;SDS011;48483;44.640;7.494;2023-07-29T05:41:10;7.18;;;3.60;;
39956;SDS011;48483;44.640;7.494;2023-07-29T05:43:36;7.43;;;3.90;;
39956;SDS011;48483;44.640;7.494;2023-07-29T05:46:03;5.30;;;3.63;;
39956;SDS011;48483;44.640;7.494;2023-07-29T05:48:30;5.32;;;3.58;;
39956;SDS011;48483;44.640;7.494;2023-07-29T05:50:56;5.47;;;3.28;;
39956;SDS011;48483;44.640;7.494;2023-07-29T05:53:23;8.20;;;3.40;;
39956;SDS011;48483;44.640;7.494;2023-07-29T05:55:50;10.38;;;4.43;;
39956;SDS011;48483;44.640;7.494;2023-07-29T05:58:18;9.40;;;3.88;;
39956;SDS011;48483;44.640;7.494;2023-07-29T06:00:45;8.13;;;4.00;;
39956;SDS011;48483;44.640;7.494;2023-07-29T06:03:12;6.28;;;3.70;;
39956;SDS011;48483;44.640;7.494;2023-07-29T06:05:38;8.88;;;3.78;;
39956;SDS011;48483;44.640;7.494;2023-07-29T06:08:05;5.82;;;3.63;;
39956;SDS011;48483;44.640;7.494;2023-07-29T06:10:34;5.15;;;3.28;;
39956;SDS011;48483;44.640;7.494;2023-07-29T06:13:01;4.60;;;3.15;;
39956;SDS011;48483;44.640;7.494;2023-07-29T06:15:29;5.60;;;3.60;;
39956;SDS011;48483;44.640;7.494;2023-07-29T06:17:56;5.95;;;3.40;;
39956;SDS011;48483;44.640;7.494;2023-07-29T06:20:22;5.55;;;3.22;;
39956;SDS011;48483;44.640;7.494;2023-07-29T06:22:49;5.80;;;3.60;;
39956;SDS011;48483;44.640;7.494;2023-07-29T06:25:16;7.38;;;4.13;;
39956;SDS011;48483;44.640;7.494;2023-07-29T06:27:42;4.80;;;3.58;;
39956;SDS011;48483;44.640;7.494;2023-07-29T06:30:09;6.75;;;3.42;;
39956;SDS011;48483;44.640;7.494;2023-07-29T06:32:37;5.65;;;3.95;;
39956;SDS011;48483;44.640;7.494;2023-07-29T06:35:04;23.25;;;5.18;;
39956;SDS011;48483;44.640;7.494;2023-07-29T06:37:32;7.15;;;4.55;;
39956;SDS011;48483;44.640;7.494;2023-07-29T06:39:59;6.45;;;3.67;;
39956;SDS011;48483;44.640;7.494;2023-07-29T06:42:25;9.55;;;4.47;;
39956;SDS011;48483;44.640;7.494;2023-07-29T06:44:52;6.18;;;4.03;;
39956;SDS011;48483;44.640;7.494;2023-07-29T06:47:19;5.78;;;3.85;;
39956;SDS011;48483;44.640;7.494;2023-07-29T06:49:47;7.22;;;4.78;;
39956;SDS011;48483;44.640;7.494;2023-07-29T06:52:13;8.52;;;4.57;;
39956;SDS011;48483;44.640;7.494;2023-07-29T06:54:40;8.15;;;4.65;;
39956;SDS011;48483;44.640;7.494;2023-07-29T06:57:07;6.55;;;4.47;;
39956;SDS011;48483;44.640;7.494;2023-07-29T06:59:34;8.52;;;4.40;;
39956;SDS011;48483;44.640;7.494;2023-07-29T07:02:00;10.15;;;4.82;;
39956;SDS011;48483;44.640;7.494;2023-07-29T07:04:27;8.80;;;5.18;;
39956;SDS011;48483;44.640;7.494;2023-07-29T07:06:55;8.90;;;4.95;;
39956;SDS011;48483;44.640;7.494;2023-07-29T07:09:22;5.18;;;3.70;;
39956;SDS011;48483;44.640;7.494;2023-07-29T07:11:49;8.25;;;4.10;;
39956;SDS011;48483;44.640;7.494;2023-07-29T07:14:15;6.80;;;4.50;;
39956;SDS011;48483;44.640;7.494;2023-07-29T07:16:42;8.07;;;4.80;;
39956;SDS011;48483;44.640;7.494;2023-07-29T07:19:09;6.18;;;4.35;;
39956;SDS011;48483;44.640;7.494;2023-07-29T07:21:35;7.35;;;4.10;;
39956;SDS011;48483;44.640;7.494;2023-07-29T07:24:04;6.90;;;4.55;;
39956;SDS011;48483;44.640;7.494;2023-07-29T07:26:30;8.10;;;4.53;;
39956;SDS011;48483;44.640;7.494;2023-07-29T07:28:57;5.68;;;4.22;;
39956;SDS011;48483;44.640;7.494;2023-07-29T07:31:24;7.70;;;4.70;;
39956;SDS011;48483;44.640;7.494;2023-07-29T07:33:50;10.77;;;6.13;;
39956;SDS011;48483;44.640;7.494;2023-07-29T07:36:17;7.93;;;5.63;;
39956;SDS011;48483;44.640;7.494;2023-07-29T07:38:44;10.57;;;4.75;;
39956;SDS011;48483;44.640;7.494;2023-07-29T07:41:12;8.18;;;5.68;;
39956;SDS011;48483;44.640;7.494;2023-07-29T07:43:38;6.88;;;5.18;;
39956;SDS011;48483;44.640;7.494;2023-07-29T07:46:05;9.60;;;4.47;;
39956;SDS011;48483;44.640;7.494;2023-07-29T07:48:32;6.55;;;5.13;;
39956;SDS011;48483;44.640;7.494;2023-07-29T07:50:59;6.70;;;4.82;;
39956;SDS011;48483;44.640;7.494;2023-07-29T07:53:25;7.53;;;5.45;;
39956;SDS011;48483;44.640;7.494;2023-07-29T07:55:52;8.07;;;5.68;;
39956;SDS011;48483;44.640;7.494;2023-07-29T07:58:20;9.68;;;5.90;;
39956;SDS011;48483;44.640;7.494;2023-07-29T08:00:47;12.68;;;5.50;;
39956;SDS011;48483;44.640;7.494;2023-07-29T08:03:14;8.68;;;4.32;;
39956;SDS011;48483;44.640;7.494;2023-07-29T08:05:40;7.10;;;4.25;;
39956;SDS011;48483;44.640;7.494;2023-07-29T08:08:07;6.75;;;4.38;;
39956;SDS011;48483;44.640;7.494;2023-07-29T08:10:34;8.20;;;5.05;;
39956;SDS011;48483;44.640;7.494;2023-07-29T08:13:00;9.55;;;5.18;;
39956;SDS011;48483;44.640;7.494;2023-07-29T08:15:28;7.20;;;4.45;;
39956;SDS011;48483;44.640;7.494;2023-07-29T08:17:55;7.40;;;4.47;;
39956;SDS011;48483;44.640;7.494;2023-07-29T08:20:22;6.82;;;4.53;;
39956;SDS011;48483;44.640;7.494;2023-07-29T08:22:48;9.48;;;4.97;;
39956;SDS011;48483;44.640;7.494;2023-07-29T08:25:15;6.18;;;4.57;;
39956;SDS011;48483;44.640;7.494;2023-07-29T08:27:42;8.07;;;5.03;;
39956;SDS011;48483;44.640;7.494;2023-07-29T08:30:08;7.60;;;5.07;;
39956;SDS011;48483;44.640;7.494;2023-07-29T08:32:37;6.95;;;3.95;;
39956;SDS011;48483;44.640;7.494;2023-07-29T08:35:04;6.50;;;3.78;;
39956;SDS011;48483;44.640;7.494;2023-07-29T08:37:31;7.93;;;4.32;;
39956;SDS011;48483;44.640;7.494;2023-07-29T08:39:58;7.82;;;4.30;;
39956;SDS011;48483;44.640;7.494;2023-07-29T08:42:25;8.23;;;4.38;;
39956;SDS011;48483;44.640;7.494;2023-07-29T08:44:56;7.43;;;4.90;;
39956;SDS011;48483;44.640;7.494;2023-07-29T08:47:33;6.45;;;4.00;;
39956;SDS011;48483;44.640;7.494;2023-07-29T08:50:02;8.82;;;5.47;;
39956;SDS011;48483;44.640;7.494;2023-07-29T08:52:32;8.75;;;4.85;;
39956;SDS011;48483;44.640;7.494;2023-07-29T08:55:01;8.00;;;5.63;;
39956;SDS011;48483;44.640;7.494;2023-07-29T08:57:28;8.32;;;5.40;;
39956;SDS011;48483;44.640;7.494;2023-07-29T08:59:55;9.10;;;4.63;;
39956;SDS011;48483;44.640;7.494;2023-07-29T09:02:23;7.90;;;4.43;;
39956;SDS011;48483;44.640;7.494;2023-07-29T09:04:50;9.15;;;4.63;;
39956;SDS011;48483;44.640;7.494;2023-07-29T09:07:18;11.25;;;6.60;;
39956;SDS011;48483;44.640;7.494;2023-07-29T09:09:46;8.50;;;6.33;;
39956;SDS011;48483;44.640;7.494;2023-07-29T09:12:13;9.63;;;6.25;;
39956;SDS011;48483;44.640;7.494;2023-07-29T09:14:40;10.35;;;6.32;;
39956;SDS011;48483;44.640;7.494;2023-07-29T09:17:07;9.25;;;6.63;;
39956;SDS011;48483;44.640;7.494;2023-07-29T09:19:34;10.77;;;6.63;;
39956;SDS011;48483;44.640;7.494;2023-07-29T09:22:01;9.35;;;6.22;;
39956;SDS011;48483;44.640;7.494;2023-07-29T09:24:29;9.50;;;5.10;;
39956;SDS011;48483;44.640;7.494;2023-07-29T09:26:58;11.43;;;6.00;;
39956;SDS011;48483;44.640;7.494;2023-07-29T09:29:27;13.93;;;6.32;;
39956;SDS011;48483;44.640;7.494;2023-07-29T09:31:54;7.95;;;5.43;;
39956;SDS011;48483;44.640;7.494;2023-07-29T09:34:22;9.68;;;6.22;;
39956;SDS011;48483;44.640;7.494;2023-07-29T09:36:50;8.95;;;5.43;;
39956;SDS011;48483;44.640;7.494;2023-07-29T09:39:17;9.20;;;6.13;;
39956;SDS011;48483;44.640;7.494;2023-07-29T09:41:48;8.25;;;5.30;;
39956;SDS011;48483;44.640;7.494;2023-07-29T09:44:15;9.68;;;7.10;;
39956;SDS011;48483;44.640;7.494;2023-07-29T09:46:45;7.03;;;5.43;;
39956;SDS011;48483;44.640;7.494;2023-07-29T09:49:12;7.35;;;4.63;;
39956;SDS011;48483;44.640;7.494;2023-07-29T09:51:38;10.55;;;5.45;;
39956;SDS011;48483;44.640;7.494;2023-07-29T09:54:05;7.88;;;6.30;;
39956;SDS011;48483;44.640;7.494;2023-07-29T09:56:33;9.65;;;6.18;;
39956;SDS011;48483;44.640;7.494;2023-07-29T09:59:08;8.82;;;5.28;;
39956;SDS011;48483;44.640;7.494;2023-07-29T10:01:37;8.93;;;5.35;;
39956;SDS011;48483;44.640;7.494;2023-07-29T10:04:04;12.95;;;6.22;;
39956;SDS011;48483;44.640;7.494;2023-07-29T10:06:31;12.35;;;6.32;;
39956;SDS011;48483;44.640;7.494;2023-07-29T10:09:00;8.43;;;5.18;;
39956;SDS011;48483;44.640;7.494;2023-07-29T10:11:27;8.82;;;6.18;;
39956;SDS011;48483;44.640;7.494;2023-07-29T10:13:54;7.88;;;4.85;;
39956;SDS011;48483;44.640;7.494;2023-07-29T10:16:22;8.23;;;4.30;;
39956;SDS011;48483;44.640;7.494;2023-07-29T10:18:50;11.88;;;5.28;;
39956;SDS011;48483;44.640;7.494;2023-07-29T10:21:18;8.82;;;6.72;;
39956;SDS011;48483;44.640;7.494;2023-07-29T10:23:48;11.60;;;7.35;;
39956;SDS011;48483;44.640;7.494;2023-07-29T10:26:19;8.65;;;6.05;;
39956;SDS011;48483;44.640;7.494;2023-07-29T10:28:47;9.68;;;6.65;;
39956;SDS011;48483;44.640;7.494;2023-07-29T10:31:18;12.57;;;7.00;;
39956;SDS011;48483;44.640;7.494;2023-07-29T10:33:48;15.55;;;8.27;;
39956;SDS011;48483;44.640;7.494;2023-07-29T10:36:15;11.05;;;7.90;;
39956;SDS011;48483;44.640;7.494;2023-07-29T10:38:42;9.05;;;7.75;;
39956;SDS011;48483;44.640;7.494;2023-07-29T10:41:09;8.98;;;6.75;;
39956;SDS011;48483;44.640;7.494;2023-07-29T10:43:36;10.88;;;9.07;;
39956;SDS011;48483;44.640;7.494;2023-07-29T10:48:43;9.02;;;5.72;;
39956;SDS011;48483;44.640;7.494;2023-07-29T10:51:25;8.63;;;5.82;;
39956;SDS011;48483;44.640;7.494;2023-07-29T10:53:57;8.82;;;5.35;;
39956;SDS011;48483;44.640;7.494;2023-07-29T10:56:26;10.40;;;5.82;;
39956;SDS011;48483;44.640;7.494;2023-07-29T10:58:54;9.95;;;5.32;;
39956;SDS011;48483;44.640;7.494;2023-07-29T11:01:26;8.25;;;5.65;;
39956;SDS011;48483;44.640;7.494;2023-07-29T11:09:57;12.20;;;5.30;;
39956;SDS011;48483;44.640;7.494;2023-07-29T11:12:36;6.35;;;5.07;;
39956;SDS011;48483;44.640;7.494;2023-07-29T11:17:53;8.93;;;5.40;;
39956;SDS011;48483;44.640;7.494;2023-07-29T11:20:22;14.27;;;6.68;;
39956;SDS011;48483;44.640;7.494;2023-07-29T11:22:52;9.57;;;5.20;;
39956;SDS011;48483;44.640;7.494;2023-07-29T11:25:19;12.50;;;8.60;;
39956;SDS011;48483;44.640;7.494;2023-07-29T11:27:47;11.35;;;7.68;;
39956;SDS011;48483;44.640;7.494;2023-07-29T11:30:15;13.27;;;7.78;;
39956;SDS011;48483;44.640;7.494;2023-07-29T11:32:42;11.50;;;6.97;;
39956;SDS011;48483;44.640;7.494;2023-07-29T11:35:10;10.55;;;6.30;;
39956;SDS011;48483;44.640;7.494;2023-07-29T11:37:40;6.25;;;5.47;;
39956;SDS011;48483;44.640;7.494;2023-07-29T11:40:12;7.63;;;5.63;;
39956;SDS011;48483;44.640;7.494;2023-07-29T11:42:40;6.85;;;5.07;;
39956;SDS011;48483;44.640;7.494;2023-07-29T11:45:08;12.63;;;5.15;;
39956;SDS011;48483;44.640;7.494;2023-07-29T11:47:35;9.18;;;5.10;;
39956;SDS011;48483;44.640;7.494;2023-07-29T11:50:03;9.32;;;4.72;;
39956;SDS011;48483;44.640;7.494;2023-07-29T11:52:31;7.72;;;4.85;;
39956;SDS011;48483;44.640;7.494;2023-07-29T11:55:00;11.02;;;5.03;;
39956;SDS011;48483;44.640;7.494;2023-07-29T11:57:29;9.80;;;4.75;;
39956;SDS011;48483;44.640;7.494;2023-07-29T11:59:56;7.75;;;5.47;;
39956;SDS011;48483;44.640;7.494;2023-07-29T12:02:23;6.95;;;4.72;;
39956;SDS011;48483;44.640;7.494;2023-07-29T12:04:51;7.15;;;5.68;;
39956;SDS011;48483;44.640;7.494;2023-07-29T12:07:19;6.75;;;5.10;;
39956;SDS011;48483;44.640;7.494;2023-07-29T12:09:46;6.05;;;4.25;;
39956;SDS011;48483;44.640;7.494;2023-07-29T12:12:14;7.63;;;4.32;;
39956;SDS011;48483;44.640;7.494;2023-07-29T12:14:44;6.85;;;4.68;;
39956;SDS011;48483;44.640;7.494;2023-07-29T12:17:14;7.05;;;4.97;;
39956;SDS011;48483;44.640;7.494;2023-07-29T12:19:41;7.78;;;5.35;;
39956;SDS011;48483;44.640;7.494;2023-07-29T12:22:09;6.90;;;5.03;;
39956;SDS011;48483;44.640;7.494;2023-07-29T12:24:37;6.07;;;5.28;;
39956;SDS011;48483;44.640;7.494;2023-07-29T12:27:05;10.13;;;4.82;;
39956;SDS011;48483;44.640;7.494;2023-07-29T12:29:39;8.68;;;5.07;;
39956;SDS011;48483;44.640;7.494;2023-07-29T12:32:08;6.65;;;5.30;;
39956;SDS011;48483;44.640;7.494;2023-07-29T12:34:36;5.50;;;4.28;;
39956;SDS011;48483;44.640;7.494;2023-07-29T12:37:05;8.55;;;4.85;;
39956;SDS011;48483;44.640;7.494;2023-07-29T12:39:32;7.70;;;4.70;;
39956;SDS011;48483;44.640;7.494;2023-07-29T12:42:01;8.52;;;5.85;;
39956;SDS011;48483;44.640;7.494;2023-07-29T12:44:29;8.73;;;4.63;;
39956;SDS011;48483;44.640;7.494;2023-07-29T12:46:57;5.57;;;4.43;;
39956;SDS011;48483;44.640;7.494;2023-07-29T12:49:25;10.93;;;4.63;;
39956;SDS011;48483;44.640;7.494;2023-07-29T12:51:54;11.88;;;5.15;;
39956;SDS011;48483;44.640;7.494;2023-07-29T12:54:21;8.70;;;5.68;;
39956;SDS011;48483;44.640;7.494;2023-07-29T12:56:47;9.07;;;4.22;;
39956;SDS011;48483;44.640;7.494;2023-07-29T12:59:14;8.18;;;4.57;;
39956;SDS011;48483;44.640;7.494;2023-07-29T13:01:41;9.65;;;5.30;;
39956;SDS011;48483;44.640;7.494;2023-07-29T13:04:09;7.32;;;4.70;;
39956;SDS011;48483;44.640;7.494;2023-07-29T13:06:37;7.72;;;4.78;;
39956;SDS011;48483;44.640;7.494;2023-07-29T13:09:04;6.53;;;4.63;;
39956;SDS011;48483;44.640;7.494;2023-07-29T13:11:31;7.65;;;5.00;;
39956;SDS011;48483;44.640;7.494;2023-07-29T13:13:58;9.15;;;5.35;;
39956;SDS011;48483;44.640;7.494;2023-07-29T13:16:26;7.70;;;5.30;;
39956;SDS011;48483;44.640;7.494;2023-07-29T13:18:53;9.35;;;5.28;;
39956;SDS011;48483;44.640;7.494;2023-07-29T13:21:20;7.93;;;5.07;;
39956;SDS011;48483;44.640;7.494;2023-07-29T13:23:48;6.45;;;4.85;;
39956;SDS011;48483;44.640;7.494;2023-07-29T13:26:14;6.88;;;4.90;;
39956;SDS011;48483;44.640;7.494;2023-07-29T13:28:41;6.35;;;5.18;;
39956;SDS011;48483;44.640;7.494;2023-07-29T13:31:08;6.45;;;5.00;;
39956;SDS011;48483;44.640;7.494;2023-07-29T13:33:34;9.02;;;4.80;;
39956;SDS011;48483;44.640;7.494;2023-07-29T13:36:01;8.60;;;5.15;;
39956;SDS011;48483;44.640;7.494;2023-07-29T13:38:29;7.28;;;4.90;;
39956;SDS011;48483;44.640;7.494;2023-07-29T13:40:57;9.23;;;5.85;;
39956;SDS011;48483;44.640;7.494;2023-07-29T13:43:24;8.23;;;5.68;;
39956;SDS011;48483;44.640;7.494;2023-07-29T13:45:51;7.28;;;4.72;;
39956;SDS011;48483;44.640;7.494;2023-07-29T13:48:18;7.90;;;5.15;;
39956;SDS011;48483;44.640;7.494;2023-07-29T13:50:45;8.10;;;5.22;;
39956;SDS011;48483;44.640;7.494;2023-07-29T13:53:12;8.48;;;4.57;;
39956;SDS011;48483;44.640;7.494;2023-07-29T13:55:39;10.68;;;4.63;;
39956;SDS011;48483;44.640;7.494;2023-07-29T13:58:07;8.10;;;6.10;;
39956;SDS011;48483;44.640;7.494;2023-07-29T14:00:34;6.68;;;5.53;;
39956;SDS011;48483;44.640;7.494;2023-07-29T14:03:00;7.80;;;5.10;;
39956;SDS011;48483;44.640;7.494;2023-07-29T14:05:27;8.40;;;5.30;;
39956;SDS011;48483;44.640;7.494;2023-07-29T14:07:54;7.20;;;4.85;;
39956;SDS011;48483;44.640;7.494;2023-07-29T14:10:20;5.88;;;4.68;;
39956;SDS011;48483;44.640;7.494;2023-07-29T14:12:47;7.38;;;5.05;;
39956;SDS011;48483;44.640;7.494;2023-07-29T14:15:15;6.50;;;4.50;;
39956;SDS011;48483;44.640;7.494;2023-07-29T14:17:42;10.55;;;4.88;;
39956;SDS011;48483;44.640;7.494;2023-07-29T14:20:09;8.18;;;5.18;;
39956;SDS011;48483;44.640;7.494;2023-07-29T14:22:36;9.32;;;4.82;;
39956;SDS011;48483;44.640;7.494;2023-07-29T14:25:03;7.38;;;5.03;;
39956;SDS011;48483;44.640;7.494;2023-07-29T14:27:31;6.43;;;5.25;;
39956;SDS011;48483;44.640;7.494;2023-07-29T14:29:57;6.60;;;4.60;;
39956;SDS011;48483;44.640;7.494;2023-07-29T14:32:25;6.53;;;4.82;;
39956;SDS011;48483;44.640;7.494;2023-07-29T14:34:52;8.20;;;4.88;;
39956;SDS011;48483;44.640;7.494;2023-07-29T14:37:19;21.35;;;7.28;;
39956;SDS011;48483;44.640;7.494;2023-07-29T14:39:45;9.70;;;4.90;;
39956;SDS011;48483;44.640;7.494;2023-07-29T14:42:12;7.32;;;4.85;;
39956;SDS011;48483;44.640;7.494;2023-07-29T14:44:40;6.75;;;5.22;;
39956;SDS011;48483;44.640;7.494;2023-07-29T14:47:07;12.45;;;5.40;;
39956;SDS011;48483;44.640;7.494;2023-07-29T14:49:35;7.07;;;4.85;;
39956;SDS011;48483;44.640;7.494;2023-07-29T14:52:02;7.45;;;4.53;;
39956;SDS011;48483;44.640;7.494;2023-07-29T14:54:29;8.07;;;5.22;;
39956;SDS011;48483;44.640;7.494;2023-07-29T14:56:56;6.57;;;5.13;;
39956;SDS011;48483;44.640;7.494;2023-07-29T14:59:22;10.55;;;5.90;;
39956;SDS011;48483;44.640;7.494;2023-07-29T15:01:49;10.30;;;5.65;;